createdAt,value
2022-10-03T00:01:56.632Z,7.30
2022-10-03T00:04:33.996Z,6.20
2022-10-03T00:07:09.553Z,6.00
2022-10-03T00:09:47.254Z,8.07
2022-10-03T00:12:19.499Z,6.93
2022-10-03T00:14:52.929Z,9.83
2022-10-03T00:17:23.710Z,5.93
2022-10-03T00:19:57.472Z,9.13
2022-10-03T00:22:33.098Z,8.43
2022-10-03T00:25:14.453Z,9.40
2022-10-03T00:27:45.168Z,7.77
2022-10-03T00:30:18.326Z,7.30
2022-10-03T00:33:04.994Z,8.03
2022-10-03T00:35:49.444Z,12.07
2022-10-03T00:38:23.576Z,7.17
2022-10-03T00:41:20.928Z,10.37
2022-10-03T00:44:06.945Z,8.67
2022-10-03T00:46:53.537Z,10.40
2022-10-03T00:49:39.330Z,8.47
2022-10-03T00:52:17.590Z,9.87
2022-10-03T00:54:52.843Z,12.70
2022-10-03T00:57:35.283Z,10.57
2022-10-03T01:00:15.106Z,9.07
2022-10-03T01:02:48.799Z,8.33
2022-10-03T01:05:26.015Z,12.67
2022-10-03T01:08:00.013Z,9.90
2022-10-03T01:10:35.170Z,8.57
2022-10-03T01:13:15.344Z,8.33
2022-10-03T01:15:48.613Z,7.43
2022-10-03T01:18:23.551Z,10.03
2022-10-03T01:20:55.955Z,11.70
2022-10-03T01:23:33.846Z,10.07
2022-10-03T01:26:07.746Z,9.93
2022-10-03T01:29:02.911Z,9.60
2022-10-03T01:31:35.053Z,10.67
2022-10-03T01:34:09.363Z,11.10
2022-10-03T01:36:41.704Z,10.97
2022-10-03T01:39:14.813Z,10.73
2022-10-03T01:41:46.950Z,9.00
2022-10-03T01:44:23.635Z,8.50
2022-10-03T01:46:54.613Z,9.93
2022-10-03T01:49:26.933Z,11.50
2022-10-03T01:52:00.656Z,14.70
2022-10-03T01:54:35.629Z,11.13
2022-10-03T01:57:06.581Z,10.30
2022-10-03T01:59:39.897Z,10.33
2022-10-03T02:02:12.490Z,9.33
2022-10-03T02:04:45.471Z,10.17
2022-10-03T02:07:20.961Z,12.87
2022-10-03T02:09:53.401Z,12.00
2022-10-03T02:12:28.115Z,10.97
2022-10-03T02:15:01.239Z,15.43
2022-10-03T02:17:37.441Z,10.73
2022-10-03T02:20:08.931Z,14.30
2022-10-03T02:22:42.624Z,11.00
2022-10-03T02:25:20.743Z,12.63
2022-10-03T02:28:05.767Z,12.83
2022-10-03T02:30:41.901Z,13.47
2022-10-03T02:33:37.463Z,14.43
2022-10-03T02:36:29.634Z,11.63
2022-10-03T02:39:11.936Z,15.43
2022-10-03T02:41:53.397Z,16.10
2022-10-03T02:44:40.435Z,15.80
2022-10-03T02:47:26.653Z,14.80
2022-10-03T02:50:14.276Z,15.27
2022-10-03T02:53:04.756Z,13.67
2022-10-03T02:55:48.064Z,11.27
2022-10-03T02:58:40.832Z,13.10
2022-10-03T03:01:24.039Z,9.03
2022-10-03T03:04:08.547Z,12.93
2022-10-03T03:06:56.527Z,11.47
2022-10-03T03:09:38.776Z,12.93
2022-10-03T03:12:28.464Z,17.33
2022-10-03T03:15:23.876Z,14.90
2022-10-03T03:17:55.634Z,14.53
2022-10-03T03:20:30.362Z,14.37
2022-10-03T03:23:06.992Z,13.77
2022-10-03T03:25:44.971Z,13.77
2022-10-03T03:28:19.596Z,19.57
2022-10-03T03:30:54.295Z,14.03
2022-10-03T03:33:28.086Z,12.83
2022-10-03T03:36:00.913Z,15.90
2022-10-03T03:38:32.520Z,11.57
2022-10-03T03:41:14.225Z,13.33
2022-10-03T03:43:52.354Z,13.33
2022-10-03T03:46:30.229Z,11.77
2022-10-03T03:49:08.203Z,11.77
2022-10-03T03:51:43.476Z,12.07
2022-10-03T03:54:32.945Z,15.13
2022-10-03T03:57:12.399Z,15.17
2022-10-03T03:59:45.910Z,14.20
2022-10-03T04:02:22.145Z,18.87
2022-10-03T04:04:57.016Z,16.87
2022-10-03T04:07:31.916Z,15.13
2022-10-03T04:10:07.825Z,17.53
2022-10-03T04:12:45.403Z,11.63
2022-10-03T04:15:27.620Z,14.03
2022-10-03T04:18:21.032Z,14.17
2022-10-03T04:20:58.621Z,13.30
2022-10-03T04:23:50.051Z,14.07
2022-10-03T04:26:34.253Z,14.23
2022-10-03T04:29:20.088Z,11.90
2022-10-03T04:31:54.865Z,17.03
2022-10-03T04:34:31.077Z,12.90
2022-10-03T04:37:13.685Z,13.97
2022-10-03T04:39:47.678Z,13.10
2022-10-03T04:42:21.227Z,10.63
2022-10-03T04:45:11.903Z,18.00
2022-10-03T04:47:45.181Z,16.23
2022-10-03T04:50:24.420Z,9.80
2022-10-03T04:52:58.619Z,23.33
2022-10-03T04:55:29.786Z,17.87
2022-10-03T04:58:05.312Z,20.47
2022-10-03T05:00:41.538Z,13.80
2022-10-03T05:03:21.137Z,15.00
2022-10-03T05:05:57.870Z,28.23
2022-10-03T05:08:33.116Z,29.17
2022-10-03T05:11:20.577Z,23.37
2022-10-03T05:13:59.948Z,23.37
2022-10-03T05:16:34.441Z,13.40
2022-10-03T05:19:09.787Z,19.03
2022-10-03T05:21:41.463Z,21.30
2022-10-03T05:24:15.930Z,24.17
2022-10-03T05:26:48.597Z,24.40
2022-10-03T05:29:19.392Z,90.33
2022-10-03T05:31:53.182Z,46.67
2022-10-03T05:34:26.345Z,16.93
2022-10-03T05:37:02.707Z,16.60
2022-10-03T05:39:32.778Z,10.67
2022-10-03T05:42:21.951Z,17.77
2022-10-03T05:44:58.628Z,45.13
2022-10-03T05:47:46.119Z,10.70
2022-10-03T05:50:42.067Z,17.17
2022-10-03T05:53:18.987Z,85.13
2022-10-03T05:55:55.670Z,20.53
2022-10-03T05:58:35.824Z,12.23
2022-10-03T06:01:13.945Z,13.33
2022-10-03T06:04:08.545Z,15.00
2022-10-03T06:06:45.094Z,22.40
2022-10-03T06:09:31.948Z,14.23
2022-10-03T06:12:03.700Z,22.47
2022-10-03T06:14:35.944Z,17.97
2022-10-03T06:17:11.933Z,20.53
2022-10-03T06:19:48.407Z,18.40
2022-10-03T06:22:37.933Z,16.20
2022-10-03T06:25:23.770Z,19.10
2022-10-03T06:28:04.225Z,15.43
2022-10-03T06:30:40.695Z,21.77
2022-10-03T06:33:28.005Z,16.83
2022-10-03T06:36:14.837Z,17.70
2022-10-03T06:39:07.268Z,21.60
2022-10-03T06:41:55.112Z,16.67
2022-10-03T06:44:31.257Z,21.30
2022-10-03T06:47:06.721Z,13.87
2022-10-03T06:49:49.434Z,15.80
2022-10-03T06:52:35.045Z,23.07
2022-10-03T06:55:23.700Z,13.20
2022-10-03T06:58:11.373Z,23.47
2022-10-03T07:00:51.047Z,15.70
2022-10-03T07:03:32.914Z,17.73
2022-10-03T07:06:09.598Z,13.77
2022-10-03T07:08:53.383Z,14.10
2022-10-03T07:11:32.918Z,11.67
2022-10-03T07:14:26.351Z,12.20
2022-10-03T07:17:09.725Z,11.17
2022-10-03T07:19:56.224Z,18.53
2022-10-03T07:22:39.896Z,10.40
2022-10-03T07:25:26.754Z,13.57
2022-10-03T07:28:04.635Z,9.10
2022-10-03T07:30:38.044Z,12.33
2022-10-03T07:33:23.899Z,15.40
2022-10-03T07:36:12.446Z,13.40
2022-10-03T07:39:14.149Z,17.20
2022-10-03T07:41:52.364Z,18.93
2022-10-03T07:44:46.128Z,19.67
2022-10-03T07:47:32.609Z,18.03
2022-10-03T07:50:07.303Z,18.03
2022-10-03T07:52:45.970Z,13.27
2022-10-03T07:55:27.284Z,19.03
2022-10-03T07:58:16.292Z,15.30
2022-10-03T08:00:54.764Z,16.07
2022-10-03T08:03:38.597Z,21.10
2022-10-03T08:06:18.422Z,15.23
2022-10-03T08:09:13.639Z,14.53
2022-10-03T08:11:53.986Z,14.43
2022-10-03T08:14:27.692Z,14.00
2022-10-03T08:17:13.804Z,20.53
2022-10-03T08:20:07.152Z,22.83
2022-10-03T08:22:45.645Z,21.47
2022-10-03T08:25:28.451Z,25.23
2022-10-03T08:28:15.181Z,17.33
2022-10-03T08:30:53.888Z,13.03
2022-10-03T08:33:37.420Z,15.40
2022-10-03T08:36:29.551Z,22.73
2022-10-03T08:39:06.863Z,19.07
2022-10-03T08:42:05.529Z,24.33
2022-10-03T08:45:03.992Z,15.43
2022-10-03T08:47:56.628Z,23.27
2022-10-03T08:50:32.426Z,13.93
2022-10-03T08:53:21.734Z,19.17
2022-10-03T08:55:55.662Z,19.30
2022-10-03T08:58:42.512Z,13.03
2022-10-03T09:01:19.761Z,20.00
2022-10-03T09:04:04.299Z,19.03
2022-10-03T09:07:15.549Z,18.63
2022-10-03T09:09:55.534Z,17.00
2022-10-03T09:12:34.581Z,18.23
2022-10-03T09:15:33.631Z,12.23
2022-10-03T09:18:12.130Z,14.43
2022-10-03T09:20:55.413Z,12.50
2022-10-03T09:23:38.256Z,16.13
2022-10-03T09:26:37.013Z,17.37
2022-10-03T09:29:24.496Z,14.67
2022-10-03T09:32:17.633Z,17.43
2022-10-03T09:34:56.557Z,14.33
2022-10-03T09:37:39.898Z,15.57
2022-10-03T09:40:32.407Z,15.10
2022-10-03T09:43:18.527Z,12.60
2022-10-03T09:46:05.003Z,14.53
2022-10-03T09:48:38.865Z,14.63
2022-10-03T09:51:36.306Z,12.47
2022-10-03T09:54:22.327Z,13.53
2022-10-03T09:57:09.415Z,13.47
2022-10-03T09:59:55.322Z,17.20
2022-10-03T10:02:39.928Z,16.13
2022-10-03T10:05:26.036Z,15.00
2022-10-03T10:08:24.672Z,11.73
2022-10-03T10:10:58.816Z,18.13
2022-10-03T10:14:06.846Z,16.30
2022-10-03T10:16:39.252Z,12.93
2022-10-03T10:19:29.563Z,19.23
2022-10-03T10:22:12.392Z,12.03
2022-10-03T10:24:53.899Z,13.37
2022-10-03T10:27:32.477Z,16.90
2022-10-03T10:30:08.336Z,10.57
2022-10-03T10:33:02.420Z,13.97
2022-10-03T10:35:54.114Z,13.93
2022-10-03T10:38:40.588Z,15.53
2022-10-03T10:41:27.734Z,12.80
2022-10-03T10:44:10.985Z,12.37
2022-10-03T10:47:07.648Z,12.77
2022-10-03T10:49:49.771Z,15.77
2022-10-03T10:52:35.902Z,13.63
2022-10-03T10:55:15.304Z,10.80
2022-10-03T10:58:07.440Z,9.80
2022-10-03T11:00:45.030Z,8.73
2022-10-03T11:03:52.761Z,11.20
2022-10-03T11:06:53.451Z,11.90
2022-10-03T11:09:40.659Z,12.57
2022-10-03T11:12:27.022Z,7.80
2022-10-03T11:15:19.603Z,9.20
2022-10-03T11:18:04.416Z,10.53
2022-10-03T11:20:51.425Z,12.13
2022-10-03T11:23:43.866Z,7.77
2022-10-03T11:26:30.803Z,9.20
2022-10-03T11:29:17.719Z,9.60
2022-10-03T11:32:08.205Z,9.67
2022-10-03T11:35:00.759Z,6.63
2022-10-03T11:37:46.828Z,10.83
2022-10-03T11:40:23.198Z,7.93
2022-10-03T11:42:57.348Z,13.00
2022-10-03T11:45:29.111Z,7.40
2022-10-03T11:47:59.574Z,9.73
2022-10-03T11:50:46.112Z,8.43
2022-10-03T11:53:19.921Z,12.00
2022-10-03T11:55:53.472Z,7.50
2022-10-03T11:58:27.318Z,8.57
2022-10-03T12:00:59.311Z,10.53
2022-10-03T12:03:30.254Z,15.00
2022-10-03T12:06:14.444Z,11.30
2022-10-03T12:08:56.784Z,12.70
2022-10-03T12:11:29.113Z,10.80
2022-10-03T12:14:11.439Z,10.63
2022-10-03T12:16:47.934Z,10.60
2022-10-03T12:19:31.146Z,15.33
2022-10-03T12:22:02.202Z,16.33
2022-10-03T12:24:31.284Z,13.60
2022-10-03T12:27:07.141Z,10.10
2022-10-03T12:29:37.056Z,15.03
2022-10-03T12:32:15.995Z,12.80
2022-10-03T12:34:49.493Z,11.03
2022-10-03T12:37:35.854Z,12.73
2022-10-03T12:40:10.816Z,10.73
2022-10-03T12:42:42.900Z,7.80
2022-10-03T12:45:15.266Z,9.73
2022-10-03T12:47:56.094Z,14.80
2022-10-03T12:50:43.786Z,9.30
2022-10-03T12:53:31.750Z,6.60
2022-10-03T12:56:04.412Z,8.43
2022-10-03T12:58:37.735Z,9.57
2022-10-03T13:01:11.427Z,8.00
2022-10-03T13:03:49.665Z,12.70
2022-10-03T13:06:44.451Z,9.67
2022-10-03T13:09:18.831Z,7.07
2022-10-03T13:11:53.085Z,10.67
2022-10-03T13:14:28.600Z,8.90
2022-10-03T13:17:04.871Z,7.83
2022-10-03T13:19:39.578Z,8.30
2022-10-03T13:22:17.215Z,7.50
2022-10-03T13:24:49.595Z,8.33
2022-10-03T13:27:29.081Z,10.80
2022-10-03T13:30:05.031Z,10.77
2022-10-03T13:32:35.119Z,9.30
2022-10-03T13:35:27.091Z,11.27
2022-10-03T13:38:04.469Z,8.67
2022-10-03T13:40:34.804Z,7.73
2022-10-03T13:43:04.874Z,6.17
2022-10-03T13:45:35.336Z,9.30
2022-10-03T13:48:08.636Z,10.40
2022-10-03T13:50:41.140Z,8.27
2022-10-03T13:53:14.172Z,10.33
2022-10-03T13:55:46.186Z,7.17
2022-10-03T13:58:27.440Z,12.57
2022-10-03T14:01:11.546Z,9.33
2022-10-03T14:03:45.529Z,7.23
2022-10-03T14:06:18.521Z,11.83
2022-10-03T14:09:20.078Z,8.17
2022-10-03T14:11:51.402Z,6.73
2022-10-03T14:14:27.007Z,9.23
2022-10-03T14:17:01.226Z,5.80
2022-10-03T14:19:44.480Z,11.27
2022-10-03T14:22:19.074Z,7.60
2022-10-03T14:24:51.737Z,11.90
2022-10-03T14:27:37.477Z,10.50
2022-10-03T14:30:09.967Z,8.10
2022-10-03T14:32:48.310Z,6.90
2022-10-03T14:35:23.641Z,9.83
2022-10-03T14:37:56.995Z,6.57
2022-10-03T14:40:30.365Z,9.80
2022-10-03T14:43:07.414Z,10.60
2022-10-03T14:45:40.116Z,9.27
2022-10-03T14:48:14.628Z,9.13
2022-10-03T14:50:43.888Z,8.67
2022-10-03T14:53:17.257Z,6.13
2022-10-03T14:55:48.090Z,9.73
2022-10-03T14:58:19.510Z,9.07
2022-10-03T15:00:48.898Z,7.63
2022-10-03T15:03:24.928Z,9.83
2022-10-03T15:05:56.502Z,9.47
2022-10-03T15:08:25.888Z,12.00
2022-10-03T15:10:55.841Z,9.00
2022-10-03T15:13:25.082Z,8.10
2022-10-03T15:15:55.613Z,7.73
2022-10-03T15:18:26.404Z,5.60
2022-10-03T15:20:55.844Z,8.23
2022-10-03T15:23:25.030Z,7.97
2022-10-03T15:25:55.299Z,8.57
2022-10-03T15:28:26.511Z,11.80
2022-10-03T15:30:55.976Z,9.63
2022-10-03T15:33:30.877Z,6.67
2022-10-03T15:36:05.237Z,5.27
2022-10-03T15:38:35.892Z,11.33
2022-10-03T15:41:09.867Z,10.37
2022-10-03T15:43:43.198Z,8.17
2022-10-03T15:46:16.027Z,9.80
2022-10-03T15:48:47.689Z,7.93
2022-10-03T15:51:19.470Z,7.03
2022-10-03T15:53:49.942Z,11.87
2022-10-03T15:56:19.872Z,8.90
2022-10-03T15:58:49.928Z,9.23
2022-10-03T16:01:22.028Z,6.97
2022-10-03T16:03:56.478Z,9.53
2022-10-03T16:06:26.387Z,5.70
2022-10-03T16:08:58.789Z,8.40
2022-10-03T16:11:28.365Z,27.73
2022-10-03T16:14:01.485Z,11.83
2022-10-03T16:16:34.331Z,15.47
2022-10-03T16:19:10.973Z,18.13
2022-10-03T16:21:45.619Z,9.03
2022-10-03T16:24:20.264Z,27.67
2022-10-03T16:26:51.823Z,6.87
2022-10-03T16:29:22.500Z,22.30
2022-10-03T16:31:53.571Z,24.90
2022-10-03T16:34:25.435Z,18.03
2022-10-03T16:36:55.049Z,15.93
2022-10-03T16:39:26.358Z,6.80
2022-10-03T16:41:55.569Z,8.73
2022-10-03T16:44:29.127Z,6.53
2022-10-03T16:46:59.685Z,13.80
2022-10-03T16:49:58.332Z,7.80
2022-10-03T16:52:31.788Z,15.60
2022-10-03T16:55:02.818Z,10.83
2022-10-03T16:57:33.995Z,9.60
2022-10-03T17:00:06.818Z,9.40
2022-10-03T17:02:38.209Z,10.63
2022-10-03T17:05:09.318Z,13.17
2022-10-03T17:07:39.892Z,11.87
2022-10-03T17:10:19.535Z,8.93
2022-10-03T17:12:52.270Z,10.07
2022-10-03T17:15:22.486Z,9.90
2022-10-03T17:17:55.167Z,7.90
2022-10-03T17:20:34.431Z,15.87
2022-10-03T17:23:04.245Z,8.73
2022-10-03T17:25:37.080Z,9.37
2022-10-03T17:28:06.292Z,15.27
2022-10-03T17:30:36.727Z,7.67
2022-10-03T17:33:08.851Z,10.73
2022-10-03T17:35:46.378Z,8.97
2022-10-03T17:38:48.251Z,11.47
2022-10-03T17:41:21.651Z,12.00
2022-10-03T17:43:52.147Z,9.93
2022-10-03T17:46:24.492Z,10.10
2022-10-03T17:48:55.772Z,11.27
2022-10-03T17:51:32.539Z,13.57
2022-10-03T17:54:01.919Z,8.90
2022-10-03T17:56:32.782Z,10.10
2022-10-03T17:59:04.994Z,10.43
2022-10-03T18:01:37.176Z,9.40
2022-10-03T18:04:07.234Z,12.57
2022-10-03T18:06:40.613Z,22.40
2022-10-03T18:09:10.683Z,19.23
2022-10-03T18:11:40.496Z,13.93
2022-10-03T18:14:15.888Z,12.50
2022-10-03T18:16:48.143Z,10.03
2022-10-03T18:19:24.460Z,10.97
2022-10-03T18:22:08.354Z,13.03
2022-10-03T18:24:49.958Z,14.53
2022-10-03T18:27:39.435Z,10.77
2022-10-03T18:30:08.579Z,13.60
2022-10-03T18:32:40.036Z,12.93
2022-10-03T18:35:12.938Z,20.43
2022-10-03T18:38:00.447Z,13.47
2022-10-03T18:40:31.447Z,15.53
2022-10-03T18:43:00.963Z,12.60
2022-10-03T18:45:32.342Z,16.73
2022-10-03T18:48:03.018Z,15.30
2022-10-03T18:50:33.427Z,15.40
2022-10-03T18:53:05.918Z,16.37
2022-10-03T18:55:38.924Z,13.53
2022-10-03T18:58:13.613Z,16.23
2022-10-03T19:00:47.242Z,20.23
2022-10-03T19:03:17.920Z,42.23
2022-10-03T19:05:48.242Z,393.13
2022-10-03T19:08:20.372Z,737.37
2022-10-03T19:10:53.826Z,817.97
2022-10-03T19:13:27.396Z,48.83
2022-10-03T19:16:06.658Z,18.37
2022-10-03T19:18:42.593Z,25.13
2022-10-03T19:21:18.409Z,24.87
2022-10-03T19:23:48.364Z,21.97
2022-10-03T19:26:23.839Z,21.50
2022-10-03T19:28:54.195Z,18.83
2022-10-03T19:31:24.166Z,18.17
2022-10-03T19:33:53.981Z,14.97
2022-10-03T19:36:23.837Z,22.30
2022-10-03T19:38:54.717Z,19.40
2022-10-03T19:41:28.533Z,18.47
2022-10-03T19:43:57.246Z,21.33
2022-10-03T19:46:36.636Z,19.07
2022-10-03T19:49:23.805Z,18.00
2022-10-03T19:51:52.620Z,22.50
2022-10-03T19:54:31.953Z,24.67
2022-10-03T19:57:04.268Z,29.60
2022-10-03T19:59:39.774Z,19.90
2022-10-03T20:02:08.272Z,22.83
2022-10-03T20:04:37.660Z,23.13
2022-10-03T20:07:08.437Z,22.47
2022-10-03T20:09:37.909Z,22.43
2022-10-03T20:12:09.398Z,20.27
2022-10-03T20:14:38.578Z,19.10
2022-10-03T20:17:09.544Z,16.87
2022-10-03T20:19:45.745Z,22.07
2022-10-03T20:22:15.109Z,17.57
2022-10-03T20:24:45.423Z,19.63
2022-10-03T20:27:22.926Z,18.00
2022-10-03T20:29:57.238Z,21.43
2022-10-03T20:32:25.712Z,15.63
2022-10-03T20:34:55.701Z,17.30
2022-10-03T20:37:31.011Z,16.23
2022-10-03T20:40:08.984Z,23.50
2022-10-03T20:42:43.175Z,21.70
2022-10-03T20:45:16.431Z,21.70
2022-10-03T20:47:53.369Z,20.43
2022-10-03T20:50:24.713Z,19.87
2022-10-03T20:52:54.578Z,19.87
2022-10-03T20:55:25.841Z,16.40
2022-10-03T20:57:59.473Z,15.50
2022-10-03T21:00:27.912Z,22.97
2022-10-03T21:02:58.312Z,18.60
2022-10-03T21:05:28.046Z,25.50
2022-10-03T21:07:58.283Z,17.47
2022-10-03T21:10:29.621Z,20.00
2022-10-03T21:13:01.815Z,18.17
2022-10-03T21:15:41.603Z,23.53
2022-10-03T21:18:18.780Z,16.93
2022-10-03T21:20:47.506Z,18.63
2022-10-03T21:23:17.848Z,19.87
2022-10-03T21:25:46.620Z,16.37
2022-10-03T21:28:23.405Z,16.23
2022-10-03T21:31:05.098Z,24.87
2022-10-03T21:33:39.007Z,22.00
2022-10-03T21:36:10.050Z,25.57
2022-10-03T21:38:43.072Z,23.03
2022-10-03T21:41:22.628Z,21.17
2022-10-03T21:43:54.844Z,19.43
2022-10-03T21:46:28.946Z,20.23
2022-10-03T21:49:02.156Z,20.13
2022-10-03T21:51:34.435Z,18.77
2022-10-03T21:54:08.687Z,17.93
2022-10-03T21:56:50.991Z,18.20
2022-10-03T21:59:30.411Z,20.30
2022-10-03T22:02:03.714Z,18.40
2022-10-03T22:04:38.478Z,20.87
2022-10-03T22:07:10.694Z,20.03
2022-10-03T22:09:45.729Z,18.13
2022-10-03T22:12:14.557Z,21.67
2022-10-03T22:14:48.750Z,22.47
2022-10-03T22:17:21.112Z,17.40
2022-10-03T22:19:52.795Z,17.30
2022-10-03T22:22:30.584Z,13.93
2022-10-03T22:25:09.613Z,16.00
2022-10-03T22:27:41.624Z,22.03
2022-10-03T22:30:13.404Z,15.97
2022-10-03T22:32:44.387Z,14.27
2022-10-03T22:35:20.624Z,14.70
2022-10-03T22:37:49.193Z,14.20
2022-10-03T22:40:17.597Z,16.73
2022-10-03T22:42:47.942Z,21.43
2022-10-03T22:45:18.944Z,17.77
2022-10-03T22:47:49.800Z,15.03
2022-10-03T22:50:20.026Z,19.27
2022-10-03T22:52:50.829Z,19.73
2022-10-03T22:55:21.303Z,17.67
2022-10-03T22:57:50.231Z,12.90
2022-10-03T23:00:24.077Z,12.10
2022-10-03T23:02:56.469Z,15.00
2022-10-03T23:05:31.696Z,15.83
2022-10-03T23:08:04.903Z,15.73
2022-10-03T23:10:39.982Z,14.90
2022-10-03T23:13:12.282Z,17.03
2022-10-03T23:15:44.244Z,15.90
2022-10-03T23:18:27.967Z,17.40
2022-10-03T23:21:04.238Z,15.80
2022-10-03T23:23:36.211Z,18.13
2022-10-03T23:26:08.694Z,17.03
2022-10-03T23:28:43.487Z,16.20
2022-10-03T23:31:33.299Z,18.17
2022-10-03T23:34:02.396Z,17.43
2022-10-03T23:36:32.029Z,23.50
2022-10-03T23:39:01.505Z,16.90
2022-10-03T23:41:46.072Z,19.20
2022-10-03T23:44:33.366Z,17.80
2022-10-03T23:47:03.631Z,14.63
2022-10-03T23:49:32.147Z,14.97
2022-10-03T23:52:00.893Z,23.60
2022-10-03T23:54:29.533Z,17.70
2022-10-03T23:57:05.355Z,20.07
2022-10-03T23:59:36.534Z,15.53
